Moodys, Oklahoma
Current Conditions -  °F | °C
As of 8:35 AM on Thursday 29 Jan 2015 (Local Time) from KTQH Reporting Station
Clear Clear  
Wind Chill:   Ceiling: Unl
Heat Index:   Visibility: 10mi
Dew Point:   Wind: 17mph
Humidity: 62%   Direction: 350°N
Pressure: 30.22"   Gusts: 28mph
Location:  36.03°N, 94.96°W
Report Text: KTQH 291435Z AUTO 35015G24KT 10SM CLR 09/02 A3022 RMK AO2
Loading
Personal Weather Stations






























Interactive Weather Map New forecast layout! Learn more

10-Day Weather Forecast

Advertisements
Track Severe Weather on mobile